createdAt,value
2022-08-14T00:02:27.880Z,19.10
2022-08-14T00:05:01.636Z,19.26
2022-08-14T00:07:30.437Z,19.16
2022-08-14T00:10:49.399Z,19.13
2022-08-14T00:12:56.432Z,19.15
2022-08-14T00:15:29.687Z,19.15
2022-08-14T00:18:07.008Z,19.16
2022-08-14T00:20:43.211Z,19.15
2022-08-14T00:23:17.194Z,19.16
2022-08-14T00:25:58.651Z,19.18
2022-08-14T00:28:36.928Z,19.19
2022-08-14T00:31:08.201Z,19.20
2022-08-14T00:33:51.009Z,19.21
2022-08-14T00:36:39.512Z,19.22
2022-08-14T00:39:39.569Z,19.23
2022-08-14T00:42:21.285Z,19.23
2022-08-14T00:45:00.519Z,19.23
2022-08-14T00:47:33.642Z,19.26
2022-08-14T00:50:33.204Z,19.29
2022-08-14T00:53:10.524Z,19.30
2022-08-14T00:55:41.396Z,19.31
2022-08-14T00:58:33.137Z,19.32
2022-08-14T01:01:03.755Z,19.30
2022-08-14T01:03:39.537Z,19.30
2022-08-14T01:06:18.815Z,19.30
2022-08-14T01:08:58.306Z,19.30
2022-08-14T01:11:35.540Z,19.30
2022-08-14T01:14:25.538Z,19.25
2022-08-14T01:16:55.536Z,19.22
2022-08-14T01:19:44.919Z,19.22
2022-08-14T01:22:19.211Z,19.21
2022-08-14T01:24:50.882Z,19.18
2022-08-14T01:27:22.424Z,19.19
2022-08-14T01:30:00.840Z,19.22
2022-08-14T01:32:35.622Z,19.21
2022-08-14T01:35:19.130Z,19.19
2022-08-14T01:38:01.653Z,19.17
2022-08-14T01:40:40.752Z,19.13
2022-08-14T01:43:15.728Z,19.10
2022-08-14T01:45:48.918Z,19.08
2022-08-14T01:48:30.464Z,19.03
2022-08-14T01:51:02.807Z,19.01
2022-08-14T01:53:35.667Z,18.99
2022-08-14T01:56:11.934Z,18.99
2022-08-14T01:58:58.177Z,18.98
2022-08-14T02:01:27.424Z,18.98
2022-08-14T02:04:01.883Z,19.00
2022-08-14T02:06:37.444Z,18.99
2022-08-14T02:09:19.309Z,19.01
2022-08-14T02:11:54.634Z,19.02
2022-08-14T02:14:31.446Z,19.03
2022-08-14T02:17:01.436Z,19.03
2022-08-14T02:19:37.815Z,18.80
2022-08-14T02:22:06.842Z,19.05
2022-08-14T02:24:44.990Z,19.04
2022-08-14T02:28:24.386Z,19.04
2022-08-14T02:30:05.245Z,19.05
2022-08-14T02:32:37.222Z,19.04
2022-08-14T02:35:18.569Z,19.05
2022-08-14T02:37:49.281Z,19.06
2022-08-14T02:40:32.410Z,19.06
2022-08-14T02:43:07.829Z,19.07
2022-08-14T02:45:44.557Z,19.08
2022-08-14T02:49:03.484Z,19.06
2022-08-14T02:51:09.126Z,19.03
2022-08-14T02:53:45.512Z,19.02
2022-08-14T02:56:30.224Z,19.00
2022-08-14T02:59:10.771Z,18.97
2022-08-14T03:01:43.468Z,18.94
2022-08-14T03:04:20.303Z,18.92
2022-08-14T03:07:06.788Z,18.91
2022-08-14T03:10:27.074Z,18.88
2022-08-14T03:12:33.400Z,18.83
2022-08-14T03:15:16.147Z,18.77
2022-08-14T03:17:56.605Z,18.83
2022-08-14T03:20:43.448Z,18.72
2022-08-14T03:23:17.919Z,18.72
2022-08-14T03:25:53.808Z,18.70
2022-08-14T03:28:33.249Z,18.73
2022-08-14T03:31:08.341Z,18.75
2022-08-14T03:33:42.217Z,18.74
2022-08-14T03:37:50.734Z,18.77
2022-08-14T03:39:16.159Z,18.78
2022-08-14T03:41:55.272Z,18.80
2022-08-14T03:45:19.079Z,18.79
2022-08-14T03:47:28.643Z,18.78
2022-08-14T03:50:21.553Z,18.79
2022-08-14T03:53:02.276Z,18.82
2022-08-14T03:55:31.502Z,18.85
2022-08-14T03:58:01.034Z,18.86
2022-08-14T04:00:42.920Z,18.89
2022-08-14T04:03:24.118Z,18.91
2022-08-14T04:05:55.953Z,18.91
2022-08-14T04:08:30.762Z,18.92
2022-08-14T04:11:02.810Z,18.97
2022-08-14T04:13:39.314Z,19.01
2022-08-14T04:16:12.658Z,19.06
2022-08-14T04:18:47.336Z,19.15
2022-08-14T04:21:18.057Z,19.21
2022-08-14T04:23:57.153Z,19.29
2022-08-14T04:26:42.283Z,19.36
2022-08-14T04:29:14.453Z,19.43
2022-08-14T04:33:00.207Z,19.48
2022-08-14T04:34:41.919Z,19.02
2022-08-14T04:37:28.542Z,19.55
2022-08-14T04:40:15.524Z,19.61
2022-08-14T04:43:02.149Z,19.67
2022-08-14T04:45:40.814Z,19.71
2022-08-14T04:48:40.058Z,19.75
2022-08-14T04:51:04.318Z,19.79
2022-08-14T04:53:34.737Z,19.87
2022-08-14T04:56:06.197Z,19.71
2022-08-14T04:58:39.536Z,20.09
2022-08-14T05:01:12.928Z,20.13
2022-08-14T05:03:54.791Z,20.21
2022-08-14T05:06:37.593Z,20.30
2022-08-14T05:09:10.512Z,20.43
2022-08-14T05:11:44.322Z,20.52
2022-08-14T05:14:16.746Z,20.58
2022-08-14T05:17:02.641Z,20.63
2022-08-14T05:19:36.473Z,20.72
2022-08-14T05:22:19.783Z,20.80
2022-08-14T05:24:51.221Z,20.84
2022-08-14T05:27:23.054Z,20.88
2022-08-14T05:29:56.754Z,20.90
2022-08-14T05:32:28.307Z,20.88
2022-08-14T05:35:00.018Z,20.87
2022-08-14T05:37:31.197Z,20.83
2022-08-14T05:40:01.087Z,20.77
2022-08-14T05:42:34.005Z,20.76
2022-08-14T05:45:10.946Z,20.77
2022-08-14T05:47:43.166Z,20.79
2022-08-14T05:50:17.588Z,20.83
2022-08-14T05:52:50.331Z,20.91
2022-08-14T05:55:22.885Z,20.98
2022-08-14T05:57:59.663Z,21.10
2022-08-14T06:00:37.142Z,21.12
2022-08-14T06:03:12.370Z,21.12
2022-08-14T06:05:44.043Z,21.08
2022-08-14T06:08:31.319Z,21.13
2022-08-14T06:11:20.308Z,21.23
2022-08-14T06:13:58.598Z,21.30
2022-08-14T06:16:27.377Z,21.37
2022-08-14T06:19:06.539Z,21.40
2022-08-14T06:21:58.448Z,21.41
2022-08-14T06:24:34.665Z,21.52
2022-08-14T06:27:06.349Z,21.57
2022-08-14T06:29:39.767Z,21.63
2022-08-14T06:32:48.697Z,21.65
2022-08-14T06:35:12.167Z,21.70
2022-08-14T06:37:59.373Z,21.84
2022-08-14T06:40:34.355Z,21.89
2022-08-14T06:43:06.830Z,21.85
2022-08-14T06:45:40.988Z,22.22
2022-08-14T06:48:21.528Z,22.34
2022-08-14T06:50:53.823Z,22.40
2022-08-14T06:53:28.216Z,22.45
2022-08-14T06:56:01.944Z,22.56
2022-08-14T06:58:32.529Z,22.65
2022-08-14T07:01:27.023Z,22.76
2022-08-14T07:04:22.730Z,22.89
2022-08-14T07:06:55.465Z,23.03
2022-08-14T07:09:44.372Z,22.98
2022-08-14T07:12:54.648Z,23.13
2022-08-14T07:15:09.694Z,23.31
2022-08-14T07:17:46.716Z,23.39
2022-08-14T07:20:30.992Z,23.32
2022-08-14T07:23:05.356Z,23.42
2022-08-14T07:25:39.698Z,23.41
2022-08-14T07:28:20.686Z,23.47
2022-08-14T07:30:51.986Z,23.43
2022-08-14T07:33:29.961Z,23.46
2022-08-14T07:36:01.940Z,23.55
2022-08-14T07:38:37.936Z,23.65
2022-08-14T07:41:14.661Z,23.74
2022-08-14T07:43:55.929Z,23.79
2022-08-14T07:46:28.333Z,23.77
2022-08-14T08:02:32.788Z,24.15
2022-08-14T08:05:03.381Z,24.12
2022-08-14T08:07:34.353Z,24.17
2022-08-14T08:10:46.017Z,24.23
2022-08-14T08:13:22.208Z,24.01
2022-08-14T08:15:57.377Z,23.92
2022-08-14T08:18:29.508Z,24.47
2022-08-14T08:21:00.550Z,24.55
2022-08-14T08:23:40.770Z,24.53
2022-08-14T08:26:12.879Z,24.78
2022-08-14T08:28:43.881Z,24.88
2022-08-14T08:31:13.791Z,24.94
2022-08-14T08:33:46.971Z,24.99
2022-08-14T08:36:19.159Z,25.12
2022-08-14T08:39:17.568Z,24.99
2022-08-14T08:41:45.740Z,25.19
2022-08-14T08:44:32.000Z,25.28
2022-08-14T08:47:06.753Z,25.40
2022-08-14T08:49:53.043Z,25.54
2022-08-14T08:52:31.553Z,25.63
2022-08-14T08:55:04.565Z,25.70
2022-08-14T08:57:37.606Z,25.71
2022-08-14T09:00:24.466Z,25.85
2022-08-14T09:02:57.709Z,25.94
2022-08-14T09:05:29.012Z,25.92
2022-08-14T09:08:30.179Z,25.93
2022-08-14T09:11:18.958Z,25.90
2022-08-14T09:13:52.544Z,26.10
2022-08-14T09:16:25.015Z,26.18
2022-08-14T09:18:55.295Z,26.18
2022-08-14T09:21:31.145Z,26.28
2022-08-14T09:24:28.589Z,26.26
2022-08-14T09:26:51.961Z,26.23
2022-08-14T09:29:23.047Z,26.01
2022-08-14T09:31:58.230Z,26.32
2022-08-14T09:34:59.248Z,26.05
2022-08-14T09:37:44.826Z,26.23
2022-08-14T09:40:29.482Z,26.21
2022-08-14T09:43:13.245Z,26.06
2022-08-14T09:45:52.901Z,26.39
2022-08-14T09:48:30.098Z,26.34
2022-08-14T09:54:18.399Z,26.72
2022-08-14T09:56:45.683Z,26.88
2022-08-14T09:59:17.771Z,26.89
2022-08-14T10:01:52.857Z,27.25
2022-08-14T10:04:34.656Z,27.20
2022-08-14T10:07:08.480Z,27.46
2022-08-14T10:09:59.792Z,27.48
2022-08-14T10:12:52.923Z,27.15
2022-08-14T10:15:29.758Z,26.83
2022-08-14T10:18:17.274Z,27.31
2022-08-14T10:20:57.810Z,27.63
2022-08-14T10:23:43.769Z,26.75
2022-08-14T10:26:22.722Z,27.51
2022-08-14T10:29:23.322Z,28.12
2022-08-14T10:35:54.241Z,29.23
2022-08-14T10:38:32.358Z,29.59
2022-08-14T10:41:14.659Z,29.56
2022-08-14T10:43:45.897Z,30.16
2022-08-14T10:47:36.810Z,30.14
2022-08-14T10:49:17.641Z,29.29
2022-08-14T10:52:04.223Z,29.35
2022-08-14T10:54:40.249Z,28.60
2022-08-14T10:57:18.907Z,28.50
2022-08-14T10:59:52.030Z,28.51
2022-08-14T11:02:45.203Z,28.40
2022-08-14T11:05:20.248Z,27.92
2022-08-14T11:08:01.808Z,27.93
2022-08-14T11:10:47.672Z,28.29
2022-08-14T11:13:30.013Z,28.23
2022-08-14T11:16:01.929Z,28.04
2022-08-14T11:19:04.905Z,27.17
2022-08-14T11:21:45.620Z,27.67
2022-08-14T11:24:54.383Z,28.13
2022-08-14T11:27:11.558Z,28.28
2022-08-14T11:29:48.423Z,28.48
2022-08-14T11:32:22.165Z,28.66
2022-08-14T11:34:53.600Z,28.67
2022-08-14T11:37:33.822Z,28.67
2022-08-14T11:40:24.275Z,28.70
2022-08-14T11:42:59.612Z,28.75
2022-08-14T11:45:37.136Z,27.97
2022-08-14T11:49:02.933Z,28.52
2022-08-14T11:51:23.670Z,28.81
2022-08-14T11:53:55.771Z,28.84
2022-08-14T11:56:30.645Z,28.98
2022-08-14T11:58:59.874Z,29.09
2022-08-14T12:01:32.734Z,29.04
2022-08-14T12:04:21.672Z,29.00
2022-08-14T12:07:10.155Z,29.03
2022-08-14T12:09:48.576Z,29.14
2022-08-14T12:12:35.793Z,29.18
2022-08-14T12:15:08.240Z,29.10
2022-08-14T12:17:50.630Z,28.98
2022-08-14T12:20:32.217Z,28.85
2022-08-14T12:23:05.261Z,28.90
2022-08-14T12:25:36.342Z,28.69
2022-08-14T12:28:33.921Z,28.96
2022-08-14T12:31:24.978Z,28.96
2022-08-14T12:34:10.949Z,29.00
2022-08-14T12:36:40.644Z,28.86
2022-08-14T12:39:39.715Z,27.16
2022-08-14T12:42:27.286Z,29.04
2022-08-14T12:45:04.913Z,29.07
2022-08-14T12:47:34.358Z,29.04
2022-08-14T12:50:05.232Z,29.06
2022-08-14T12:53:02.032Z,28.86
2022-08-14T12:56:00.418Z,29.15
2022-08-14T12:58:29.441Z,29.18
2022-08-14T13:01:17.144Z,29.12
2022-08-14T13:03:49.064Z,29.09
2022-08-14T13:06:25.113Z,29.17
2022-08-14T13:09:00.085Z,29.33
2022-08-14T13:11:41.108Z,29.36
2022-08-14T13:14:17.602Z,29.36
2022-08-14T13:16:50.566Z,29.35
2022-08-14T13:19:21.056Z,29.18
2022-08-14T13:22:05.622Z,29.20
2022-08-14T13:24:40.331Z,29.30
2022-08-14T13:27:11.257Z,29.28
2022-08-14T13:29:43.770Z,29.33
2022-08-14T13:32:16.755Z,29.42
2022-08-14T13:34:48.797Z,29.54
2022-08-14T13:37:22.867Z,29.52
2022-08-14T13:39:57.291Z,29.55
2022-08-14T13:42:30.151Z,29.75
2022-08-14T13:45:01.768Z,30.12
2022-08-14T13:47:33.411Z,30.13
2022-08-14T13:50:09.183Z,29.82
2022-08-14T13:52:52.868Z,30.16
2022-08-14T13:55:25.483Z,30.13
2022-08-14T13:58:03.192Z,29.83
2022-08-14T14:00:51.668Z,29.76
2022-08-14T14:03:30.410Z,28.41
2022-08-14T14:06:03.637Z,30.00
2022-08-14T14:08:46.303Z,29.47
2022-08-14T14:11:19.623Z,30.09
2022-08-14T14:13:50.386Z,30.38
2022-08-14T14:16:30.095Z,30.67
2022-08-14T14:19:10.543Z,30.74
2022-08-14T14:21:41.965Z,30.72
2022-08-14T14:24:16.453Z,30.72
2022-08-14T14:26:57.570Z,30.53
2022-08-14T14:29:46.102Z,30.34
2022-08-14T14:32:31.258Z,30.19
2022-08-14T14:35:05.964Z,29.97
2022-08-14T14:37:37.907Z,29.94
2022-08-14T14:40:50.339Z,29.83
2022-08-14T14:43:15.500Z,29.80
2022-08-14T14:45:47.113Z,30.00
2022-08-14T14:48:18.818Z,30.34
2022-08-14T14:50:53.279Z,30.59
2022-08-14T14:53:23.095Z,30.83
2022-08-14T14:56:46.777Z,31.00
2022-08-14T14:58:48.681Z,30.98
2022-08-14T15:01:23.621Z,31.02
2022-08-14T15:03:54.228Z,31.15
2022-08-14T15:06:30.211Z,31.23
2022-08-14T15:09:04.902Z,31.31
2022-08-14T15:11:45.785Z,31.38
2022-08-14T15:14:55.028Z,31.35
2022-08-14T15:17:06.596Z,31.31
2022-08-14T15:19:36.284Z,31.32
2022-08-14T15:22:06.584Z,31.23
2022-08-14T15:24:36.709Z,31.12
2022-08-14T15:27:11.363Z,30.88
2022-08-14T15:29:43.049Z,30.67
2022-08-14T15:32:12.497Z,30.52
2022-08-14T15:34:51.721Z,30.38
2022-08-14T15:37:23.978Z,30.22
2022-08-14T15:39:53.393Z,30.04
2022-08-14T15:42:25.217Z,29.89
2022-08-14T15:44:57.492Z,29.84
2022-08-14T15:47:30.721Z,29.83
2022-08-14T15:50:01.812Z,29.78
2022-08-14T15:52:35.156Z,29.70
2022-08-14T15:55:06.889Z,29.59
2022-08-14T15:57:38.746Z,29.49
2022-08-14T16:00:43.355Z,29.44
2022-08-14T16:03:16.733Z,29.44
2022-08-14T16:05:46.458Z,29.54
2022-08-14T16:08:26.813Z,29.68
2022-08-14T16:10:59.189Z,29.82
2022-08-14T16:13:40.516Z,30.13
2022-08-14T16:16:50.461Z,30.62
2022-08-14T16:22:02.752Z,31.65
2022-08-14T16:25:02.788Z,31.91
2022-08-14T16:27:39.157Z,31.58
2022-08-14T16:30:20.629Z,31.50
2022-08-14T16:32:56.936Z,31.57
2022-08-14T16:35:42.172Z,31.15
2022-08-14T16:38:29.351Z,30.75
2022-08-14T16:40:23.757Z,30.68
2022-08-14T16:41:27.647Z,30.70
2022-08-14T16:44:02.769Z,30.42
2022-08-14T16:46:42.871Z,30.22
2022-08-14T16:49:19.217Z,29.65
2022-08-14T16:51:52.618Z,29.51
2022-08-14T16:54:35.204Z,28.98
2022-08-14T16:57:22.585Z,28.34
2022-08-14T16:59:57.615Z,27.82
2022-08-14T17:02:39.993Z,27.31
2022-08-14T17:05:20.808Z,26.97
2022-08-14T17:08:33.278Z,26.56
2022-08-14T17:11:11.061Z,26.53
2022-08-14T17:13:59.896Z,26.29
2022-08-14T17:16:37.630Z,26.06
2022-08-14T17:19:13.772Z,25.79
2022-08-14T17:21:47.227Z,25.55
2022-08-14T17:24:56.884Z,25.64
2022-08-14T17:27:10.334Z,25.58
2022-08-14T17:32:56.735Z,23.87
2022-08-14T17:35:57.339Z,25.18
2022-08-14T17:38:39.549Z,25.11
2022-08-14T17:41:27.107Z,25.01
2022-08-14T17:46:43.309Z,24.91
2022-08-14T17:49:17.990Z,24.88
2022-08-14T17:52:17.525Z,24.91
2022-08-14T17:54:52.919Z,24.91
2022-08-14T17:57:30.410Z,24.85
2022-08-14T18:00:05.991Z,24.75
2022-08-14T18:02:36.596Z,24.64
2022-08-14T18:05:11.047Z,24.54
2022-08-14T18:08:00.378Z,24.47
2022-08-14T18:10:54.940Z,24.38
2022-08-14T18:13:51.689Z,24.31
2022-08-14T18:16:19.727Z,24.24
2022-08-14T18:18:55.998Z,24.13
2022-08-14T18:21:56.219Z,24.04
2022-08-14T18:24:29.833Z,23.95
2022-08-14T18:27:09.046Z,23.89
2022-08-14T18:29:54.832Z,23.86
2022-08-14T18:32:58.232Z,23.84
2022-08-14T18:35:58.637Z,23.83
2022-08-14T18:40:03.063Z,23.02
2022-08-14T18:43:03.955Z,23.78
2022-08-14T18:47:00.069Z,23.75
2022-08-14T18:49:42.796Z,23.67
2022-08-14T18:56:29.676Z,23.54
2022-08-14T18:59:47.207Z,23.50
2022-08-14T19:07:23.040Z,22.08
2022-08-14T19:09:58.954Z,23.40
2022-08-14T19:13:12.988Z,23.39
2022-08-14T19:15:44.439Z,23.34
2022-08-14T19:18:28.047Z,23.31
2022-08-14T19:21:13.351Z,23.29
2022-08-14T19:23:44.784Z,23.31
2022-08-14T19:26:36.597Z,23.35
2022-08-14T19:29:26.221Z,23.35
2022-08-14T19:32:07.791Z,23.31
2022-08-14T19:34:52.228Z,22.16
2022-08-14T19:37:48.478Z,23.31
2022-08-14T19:40:33.880Z,23.44
2022-08-14T19:43:09.115Z,23.52
2022-08-14T19:45:40.774Z,23.53
2022-08-14T19:48:15.842Z,23.45
2022-08-14T19:50:47.084Z,23.39
2022-08-14T19:53:18.406Z,23.32
2022-08-14T19:56:01.496Z,23.25
2022-08-14T19:58:55.361Z,23.21
2022-08-14T20:01:37.629Z,23.08
2022-08-14T20:04:45.251Z,23.00
2022-08-14T20:07:00.298Z,22.92
2022-08-14T20:11:06.964Z,22.85
2022-08-14T20:12:34.905Z,22.79
2022-08-14T20:15:15.479Z,22.73
2022-08-14T20:17:53.467Z,22.65
2022-08-14T20:20:32.449Z,21.48
2022-08-14T20:23:10.775Z,22.48
2022-08-14T20:26:10.366Z,22.39
2022-08-14T20:28:57.940Z,22.30
2022-08-14T20:32:07.053Z,22.21
2022-08-14T20:34:50.985Z,22.11
2022-08-14T20:37:22.728Z,22.01
2022-08-14T20:39:54.774Z,21.94
2022-08-14T20:42:43.649Z,21.84
2022-08-14T20:45:24.729Z,21.78
2022-08-14T20:48:01.137Z,21.70
2022-08-14T20:50:32.399Z,21.70
2022-08-14T20:53:05.666Z,21.67
2022-08-14T20:55:45.285Z,21.60
2022-08-14T20:58:38.492Z,21.52
2022-08-14T21:01:35.996Z,21.46
2022-08-14T21:04:32.656Z,21.40
2022-08-14T21:07:26.215Z,21.37
2022-08-14T21:10:33.442Z,21.32
2022-08-14T21:13:27.221Z,21.26
2022-08-14T21:15:57.588Z,21.18
2022-08-14T21:18:32.402Z,21.15
2022-08-14T21:21:07.672Z,21.10
2022-08-14T21:23:58.038Z,20.87
2022-08-14T21:26:52.657Z,21.05
2022-08-14T21:29:31.470Z,21.04
2022-08-14T21:32:02.003Z,21.04
2022-08-14T21:34:55.016Z,21.01
2022-08-14T21:37:24.661Z,20.99
2022-08-14T21:40:00.587Z,21.00
2022-08-14T21:42:29.791Z,21.07
2022-08-14T21:44:58.713Z,21.06
2022-08-14T21:47:27.815Z,21.03
2022-08-14T21:50:00.261Z,20.99
2022-08-14T21:52:52.225Z,20.98
2022-08-14T21:55:23.620Z,20.87
2022-08-14T21:58:45.993Z,20.99
2022-08-14T22:00:43.334Z,20.42
2022-08-14T22:03:19.554Z,20.29
2022-08-14T22:05:57.114Z,21.03
2022-08-14T22:08:27.314Z,21.05
2022-08-14T22:10:57.528Z,21.00
2022-08-14T22:13:32.157Z,20.95
2022-08-14T22:16:02.620Z,20.91
2022-08-14T22:18:32.372Z,20.83
2022-08-14T22:21:05.779Z,20.78
2022-08-14T22:23:37.131Z,20.71
2022-08-14T22:26:07.870Z,20.67
2022-08-14T22:28:38.434Z,20.64
2022-08-14T22:31:23.116Z,20.45
2022-08-14T22:33:57.839Z,20.65
2022-08-14T22:36:47.223Z,20.59
2022-08-14T22:39:17.213Z,20.52
2022-08-14T22:41:56.075Z,20.45
2022-08-14T22:44:29.211Z,20.41
2022-08-14T22:46:58.930Z,20.35
2022-08-14T22:50:32.357Z,20.36
2022-08-14T22:52:32.465Z,20.37
2022-08-14T22:55:06.006Z,20.34
2022-08-14T22:57:37.126Z,20.30
2022-08-14T23:00:16.325Z,20.00
2022-08-14T23:02:46.733Z,20.12
2022-08-14T23:05:16.126Z,20.18
2022-08-14T23:08:44.103Z,20.17
2022-08-14T23:10:35.960Z,20.17
2022-08-14T23:13:08.545Z,20.14
2022-08-14T23:15:38.433Z,20.10
2022-08-14T23:18:13.122Z,20.07
2022-08-14T23:21:35.882Z,19.68
2022-08-14T23:24:17.370Z,20.10
2022-08-14T23:26:57.980Z,20.07
2022-08-14T23:29:27.190Z,20.02
2022-08-14T23:32:00.482Z,19.98
2022-08-14T23:34:30.107Z,19.94
2022-08-14T23:37:03.812Z,19.93
2022-08-14T23:39:35.439Z,19.92
2022-08-14T23:42:11.614Z,19.91
2022-08-14T23:44:45.751Z,19.72
2022-08-14T23:47:26.874Z,19.82
2022-08-14T23:50:03.601Z,19.79
2022-08-14T23:52:56.203Z,19.78
2022-08-14T23:55:34.747Z,19.75
2022-08-14T23:58:03.925Z,19.70
